Terminal Aerodrome Forecast
Issued by NWS

Home | Current Version | Previous Version | Text Only | Print | Product List | Glossary On
Versions: 1 2 3 4 5 6 7 8 9 10 11 12 13 14 15 16 17 18 19
000
FTUS44 KHGX 251200 AAA
TAFSGR
TAF AMD
KSGR 251200Z 2512/2612 17003KT P6SM SCT250
     FM251600 24007KT P6SM SCT050 SCT250
     FM260100 35010KT P6SM BKN050
     FM260300 35011KT P6SM VCSH SCT025 BKN050
     FM260800 34009KT P6SM SCT050=

USA.gov is the U.S. government's official web portal to all federal, state and local government web resources and services.